Aeroporto :
LOGIN :

Iscrizione | Disclaimer

   EN    FR    IT 

 










Sommario :    VFR   VFR Marginale   IFR   IFR Intensivo   IFR Molto Intensivo
Visibilità : 
Base nubi : 
>= 8 km
>= 3000ft
5 / 8 km
1000 / 3000 ft
1500m / 5 km
500 / 1000 ft
800 / 1500m
200 / 500 ft
< 800m
< 200 ft
Simboli :   Temporali  Nebbia  Neve Forte  Precipitazioni Forti  Vento > 20 kt
SIGMETs :   Varie  Temporali  Ghiacco  Turbolenza  Onda orograficha  Ceneri Vulcaniche






- Altitudine del aeroporto : 256 ft
- Codice IATA : CFR


LFRK - Caen

ULTIMO METAR :
  • 171230Z AUTO 24022KT 9999 SCT035 SCT041 11/04 Q1016 TEMPO 24025G42KT 2000 TSRAGS BKN020CB

METARs OBSOLETI :
  • 171200Z AUTO 24024G35KT 9999 SCT035 10/04 Q1016 TEMPO 2000 TSRAGS BKN020CB
  • 171130Z AUTO 24022KT 9999 FEW036 10/04 Q1016 TEMPO 24025G42KT 2000 TSRAGS BKN020CB
  • 171100Z AUTO 24021KT 9999 SCT033/// 10/04 Q1016 TEMPO 24020G40KT 4000 SHRAGS BKN020CB
  • 171030Z AUTO 24023KT 9999 FEW032/// BKN120/// 10/04 Q1016 TEMPO 24020G40KT 4000 SHRAGS BKN020CB
  • 171000Z AUTO 24022KT 9999 FEW028/// SCT120/// 09/04 Q1015 TEMPO 4000 SHRA BKN020TCU BECMG 23015G30KT

TAF TAF LFRK
Valido dal 17 a 12 ore il 17 a 21 ore UTC


171100Z 1712/1721 23020G30KT 9999 BKN030
TEMPO 1712/1721 24025G42KT 4000 SHRAGS BKN020CB
PROB40
TEMPO 1712/1718 2000 TSRAGS
Met : +33 2 31 26 68 11



MetMap, La meteo Aeronautica in un colpo d'occhio ! - Copyright ORBIFLY Dicembre 2007 - Disclaimer

ORBIFLY MET'MAP TEAM :

Programmazione e sviluppo : Alexandra Zaïnal
Concezione : Baudouin d'Aumeries
Aiuto per la programmazione : Marc-Olivier Méhu
Supporto tecnico e logistico : Manuel Goepfert
Aiuto per la traduzione : Arnaldo La Scala

Contatto : metmap@orbifly.com




FONTI E CREDITI :

   NOAA